Pagrindinis puslapis
METAR-TAF:

METAR-TAF

Oro uostai :

Trat, Tailandas

platuma: 12-16-28N, ilguma: 102-19-08E, Aukštis: 32 m

Dabartinis oras

Ataskaita buvo paskelbta 5 valandos ir 0 minutes, ne 11:00 UTC
Vėjas 3 kt iš Šiaurės
Temperatūra 31°C
Drėgmė 55%
Slėgis 1010 hPa
Matomumas: 7000 m
Mažai debesys ne aukštis 2000 ft

METAR: VTBO 191100Z 01003KT 7000 FEW020 31/21 Q1010

Laikas: 23:00 (16:00 UTC)

Prognozė

Ataskaita buvo paskelbta 5 valandos ir 0 minutes, ne 11:00 UTC
Prognozė galioja nuo 19 metu 12 UTC su 20 metu 12 UTC
Vėjas 5 kt iš Šiaurės/Šiaurės Rytų
Matomumas: 8000 m
Mažai debesys ne aukštis 2500 ft
Tapsmas
nuo 19 metu 18 UTC su 19 metu 20 UTC
Vėjas kt iš Šiaurės
Matomumas: 5000 m
rūkana
Tapsmas
nuo 20 metu 02 UTC su 20 metu 04 UTC
Vėjas 8 kt iš Šiaurės/Šiaurės Rytų
Matomumas: 8000 m

TAF: VTBO 191100Z 1912/2012 02005KT 8000 FEW025 BECMG 1918/1920 00000KT 5000 BR BECMG 2002/2004 03008KT 8000 NSW

Orai ataskaitas ir orų prognozės (METAR, TAF).

turimą stotys yra geltonos ir raudonos taškus žemėlapyje.

Perkelti pele per norėdami pamatyti stoties vardą.

Tada spustelėkite, norėdami matyti oro stebėjimo ir prognozės.

Norėdami pakeisti žemėlapį: spustelėkite ant žalios mygtukų su juodo kryžiaus žemyn,; žalią mygtuką su brūkšneliu, jei norite nutolinti; arba žalių rodyklių gretimoms žemėlapius.


METAR-TAF: